createdAt,value
2023-05-17T00:02:15.406Z,100.00
2023-05-17T00:04:45.116Z,100.00
2023-05-17T00:07:12.774Z,100.00
2023-05-17T00:09:40.305Z,100.00
2023-05-17T00:12:08.244Z,100.00
2023-05-17T00:14:35.869Z,100.00
2023-05-17T00:17:03.428Z,100.00
2023-05-17T00:19:31.263Z,100.00
2023-05-17T00:21:58.765Z,100.00
2023-05-17T00:24:27.358Z,100.00
2023-05-17T00:26:55.110Z,100.00
2023-05-17T00:29:22.579Z,100.00
2023-05-17T00:31:50.060Z,100.00
2023-05-17T00:34:17.844Z,100.00
2023-05-17T00:36:45.310Z,100.00
2023-05-17T00:39:12.826Z,100.00
2023-05-17T00:41:40.982Z,100.00
2023-05-17T00:44:08.448Z,100.00
2023-05-17T00:46:36.045Z,100.00
2023-05-17T00:49:03.940Z,100.00
2023-05-17T00:51:32.024Z,100.00
2023-05-17T00:53:59.704Z,100.00
2023-05-17T00:56:27.801Z,100.00
2023-05-17T00:58:55.372Z,100.00
2023-05-17T01:01:23.255Z,100.00
2023-05-17T01:03:51.713Z,100.00
2023-05-17T01:06:19.704Z,100.00
2023-05-17T01:08:47.406Z,100.00
2023-05-17T01:11:57.169Z,100.00
2023-05-17T01:15:27.081Z,100.00
2023-05-17T01:18:22.081Z,100.00
2023-05-17T01:20:51.873Z,100.00
2023-05-17T01:23:57.329Z,100.00
2023-05-17T01:26:34.440Z,100.00
2023-05-17T01:29:02.959Z,100.00
2023-05-17T01:31:31.852Z,100.00
2023-05-17T01:33:59.408Z,100.00
2023-05-17T01:36:28.664Z,100.00
2023-05-17T01:38:56.280Z,100.00
2023-05-17T01:41:31.071Z,100.00
2023-05-17T01:44:16.416Z,100.00
2023-05-17T01:46:44.053Z,100.00
2023-05-17T01:49:26.733Z,100.00
2023-05-17T01:51:57.031Z,100.00
2023-05-17T01:54:31.179Z,100.00
2023-05-17T01:56:59.598Z,100.00
2023-05-17T01:59:29.681Z,100.00
2023-05-17T02:02:06.424Z,100.00
2023-05-17T02:04:35.159Z,100.00
2023-05-17T02:07:03.511Z,100.00
2023-05-17T02:09:31.815Z,100.00
2023-05-17T02:11:59.727Z,100.00
2023-05-17T02:14:27.507Z,100.00
2023-05-17T02:16:55.112Z,100.00
2023-05-17T02:19:22.717Z,100.00
2023-05-17T02:21:50.625Z,100.00
2023-05-17T02:24:18.149Z,100.00
2023-05-17T02:26:46.462Z,100.00
2023-05-17T02:29:14.565Z,100.00
2023-05-17T02:31:42.424Z,100.00
2023-05-17T02:34:11.332Z,100.00
2023-05-17T02:36:41.121Z,100.00
2023-05-17T02:39:08.600Z,100.00
2023-05-17T02:41:36.078Z,100.00
2023-05-17T02:44:04.300Z,100.00
2023-05-17T02:46:31.811Z,100.00
2023-05-17T02:48:59.395Z,100.00
2023-05-17T02:51:27.168Z,100.00
2023-05-17T02:53:54.827Z,100.00
2023-05-17T02:56:22.466Z,100.00
2023-05-17T02:58:50.411Z,100.00
2023-05-17T03:01:17.944Z,100.00
2023-05-17T03:03:45.976Z,100.00
2023-05-17T03:06:13.947Z,100.00
2023-05-17T03:08:41.791Z,100.00
2023-05-17T03:11:09.334Z,100.00
2023-05-17T03:13:37.276Z,100.00
2023-05-17T03:16:05.364Z,100.00
2023-05-17T03:18:33.192Z,100.00
2023-05-17T03:21:01.245Z,100.00
2023-05-17T03:23:28.748Z,100.00
2023-05-17T03:25:57.787Z,100.00
2023-05-17T03:28:26.521Z,100.00
2023-05-17T03:30:54.411Z,100.00
2023-05-17T03:33:22.297Z,100.00
2023-05-17T03:35:50.196Z,100.00
2023-05-17T03:38:17.814Z,100.00
2023-05-17T03:40:45.778Z,100.00
2023-05-17T03:43:13.639Z,100.00
2023-05-17T03:45:41.567Z,100.00
2023-05-17T03:48:09.099Z,100.00
2023-05-17T03:50:37.158Z,100.00
2023-05-17T03:53:04.755Z,100.00
2023-05-17T03:55:32.210Z,100.00
2023-05-17T03:58:00.756Z,100.00
2023-05-17T04:00:28.468Z,100.00
2023-05-17T04:02:56.848Z,100.00
2023-05-17T04:05:24.917Z,100.00
2023-05-17T04:07:54.103Z,100.00
2023-05-17T04:10:22.503Z,100.00
2023-05-17T04:12:50.086Z,100.00
2023-05-17T04:15:17.643Z,100.00
2023-05-17T04:17:45.522Z,100.00
2023-05-17T04:20:13.213Z,100.00
2023-05-17T04:22:41.371Z,100.00
2023-05-17T04:25:10.785Z,100.00
2023-05-17T04:27:38.818Z,100.00
2023-05-17T04:30:07.211Z,100.00
2023-05-17T04:32:35.955Z,100.00
2023-05-17T04:35:05.002Z,100.00
2023-05-17T04:37:32.722Z,100.00
2023-05-17T04:40:01.089Z,100.00
2023-05-17T04:42:29.171Z,100.00
2023-05-17T04:44:57.915Z,100.00
2023-05-17T04:47:26.352Z,100.00
2023-05-17T04:49:53.827Z,100.00
2023-05-17T04:52:21.464Z,100.00
2023-05-17T04:54:53.581Z,100.00
2023-05-17T04:57:21.705Z,100.00
2023-05-17T04:59:49.715Z,100.00
2023-05-17T05:02:17.336Z,100.00
2023-05-17T05:04:45.184Z,100.00
2023-05-17T05:07:13.317Z,100.00
2023-05-17T05:09:41.126Z,100.00
2023-05-17T05:12:09.227Z,100.00
2023-05-17T05:14:37.428Z,100.00
2023-05-17T05:17:05.443Z,100.00
2023-05-17T05:19:33.352Z,100.00
2023-05-17T05:22:01.439Z,100.00
2023-05-17T05:24:29.843Z,100.00
2023-05-17T05:26:57.388Z,100.00
2023-05-17T05:29:25.900Z,100.00
2023-05-17T05:31:53.660Z,100.00
2023-05-17T05:34:21.679Z,100.00
2023-05-17T05:36:49.655Z,100.00
2023-05-17T05:39:18.111Z,100.00
2023-05-17T05:41:46.092Z,100.00
2023-05-17T05:44:14.072Z,100.00
2023-05-17T05:46:41.891Z,100.00
2023-05-17T05:49:09.869Z,100.00
2023-05-17T05:51:38.582Z,100.00
2023-05-17T05:54:07.647Z,100.00
2023-05-17T05:56:35.277Z,100.00
2023-05-17T05:59:03.675Z,100.00
2023-05-17T06:01:31.418Z,100.00
2023-05-17T06:03:59.273Z,100.00
2023-05-17T06:06:27.011Z,100.00
2023-05-17T06:08:54.724Z,100.00
2023-05-17T06:11:24.169Z,100.00
2023-05-17T06:13:51.716Z,100.00
2023-05-17T06:16:19.505Z,100.00
2023-05-17T06:18:49.429Z,100.00
2023-05-17T06:21:18.758Z,100.00
2023-05-17T06:23:47.406Z,100.00
2023-05-17T06:26:15.229Z,100.00
2023-05-17T06:28:42.787Z,100.00
2023-05-17T06:31:10.611Z,100.00
2023-05-17T06:33:38.516Z,100.00
2023-05-17T06:36:06.695Z,100.00
2023-05-17T06:38:34.157Z,100.00
2023-05-17T06:41:01.955Z,100.00
2023-05-17T06:43:29.414Z,100.00
2023-05-17T06:45:56.936Z,100.00
2023-05-17T06:48:24.901Z,100.00
2023-05-17T06:50:52.538Z,100.00
2023-05-17T06:53:20.905Z,100.00
2023-05-17T06:55:48.818Z,100.00
2023-05-17T06:58:16.428Z,100.00
2023-05-17T07:00:43.987Z,100.00
2023-05-17T07:03:11.904Z,100.00
2023-05-17T07:05:39.511Z,100.00
2023-05-17T07:08:07.217Z,100.00
2023-05-17T07:10:35.067Z,100.00
2023-05-17T07:13:02.705Z,100.00
2023-05-17T07:15:30.488Z,100.00
2023-05-17T07:17:59.423Z,100.00
2023-05-17T07:20:27.071Z,100.00
2023-05-17T07:22:54.623Z,100.00
2023-05-17T07:25:22.474Z,100.00
2023-05-17T07:27:50.105Z,100.00
2023-05-17T07:30:17.698Z,100.00
2023-05-17T07:32:45.887Z,100.00
2023-05-17T07:35:13.571Z,100.00
2023-05-17T07:37:41.450Z,100.00
2023-05-17T07:40:10.065Z,100.00
2023-05-17T07:42:37.826Z,100.00
2023-05-17T07:45:06.006Z,100.00
2023-05-17T07:47:34.238Z,100.00
2023-05-17T07:50:01.865Z,100.00
2023-05-17T07:52:29.518Z,100.00
2023-05-17T07:54:57.407Z,100.00
2023-05-17T07:57:24.998Z,100.00
2023-05-17T07:59:52.565Z,100.00
2023-05-17T08:02:20.593Z,100.00
2023-05-17T08:04:48.475Z,100.00
2023-05-17T08:07:16.003Z,100.00
2023-05-17T08:09:45.459Z,100.00
2023-05-17T08:12:13.834Z,100.00
2023-05-17T08:14:41.514Z,100.00
2023-05-17T08:17:09.074Z,100.00
2023-05-17T08:19:37.586Z,100.00
2023-05-17T08:22:05.301Z,100.00
2023-05-17T08:24:32.955Z,100.00
2023-05-17T08:27:00.695Z,100.00
2023-05-17T08:29:28.260Z,100.00
2023-05-17T08:31:56.247Z,100.00
2023-05-17T08:34:24.132Z,100.00
2023-05-17T08:36:51.811Z,100.00
2023-05-17T08:39:21.156Z,100.00
2023-05-17T08:41:49.162Z,100.00
2023-05-17T08:44:17.267Z,100.00
2023-05-17T08:46:52.457Z,100.00
2023-05-17T08:49:22.835Z,100.00
2023-05-17T08:51:53.487Z,100.00
2023-05-17T08:54:22.800Z,100.00
2023-05-17T08:56:54.064Z,98.78
2023-05-17T08:59:22.118Z,97.76
2023-05-17T09:01:53.076Z,99.73
2023-05-17T09:04:21.395Z,100.00
2023-05-17T09:06:50.688Z,99.12
2023-05-17T09:09:21.722Z,96.56
2023-05-17T09:11:49.564Z,96.47
2023-05-17T09:14:17.602Z,96.31
2023-05-17T09:16:45.319Z,94.96
2023-05-17T09:19:18.016Z,97.10
2023-05-17T09:21:47.698Z,93.86
2023-05-17T09:24:19.032Z,92.06
2023-05-17T09:26:46.555Z,91.92
2023-05-17T09:29:16.058Z,90.34
2023-05-17T09:31:44.872Z,89.75
2023-05-17T09:34:12.756Z,87.75
2023-05-17T09:36:43.728Z,86.52
2023-05-17T09:39:13.648Z,89.51
2023-05-17T09:41:43.963Z,90.49
2023-05-17T09:44:12.638Z,91.65
2023-05-17T09:46:45.917Z,90.58
2023-05-17T09:49:14.700Z,91.80
2023-05-17T09:51:52.215Z,90.29
2023-05-17T09:54:20.477Z,88.79
2023-05-17T09:56:54.871Z,87.55
2023-05-17T09:59:26.333Z,83.56
2023-05-17T10:01:55.016Z,83.23
2023-05-17T10:04:27.641Z,83.19
2023-05-17T10:06:56.665Z,81.89
2023-05-17T10:09:25.856Z,79.87
2023-05-17T10:11:56.640Z,79.82
2023-05-17T10:14:31.975Z,76.80
2023-05-17T10:17:02.586Z,77.00
2023-05-17T10:19:31.561Z,78.42
2023-05-17T10:22:08.271Z,74.45
2023-05-17T10:24:48.039Z,77.03
2023-05-17T10:27:16.488Z,76.02
2023-05-17T10:29:47.000Z,76.35
2023-05-17T10:32:19.243Z,74.16
2023-05-17T10:35:01.446Z,77.95
2023-05-17T10:37:44.981Z,77.78
2023-05-17T10:40:17.561Z,76.29
2023-05-17T10:42:50.945Z,75.91
2023-05-17T10:45:22.739Z,72.81
2023-05-17T10:47:52.441Z,70.59
2023-05-17T10:50:25.185Z,70.83
2023-05-17T10:52:56.048Z,70.29
2023-05-17T10:55:25.283Z,72.27
2023-05-17T10:58:13.482Z,72.24
2023-05-17T11:00:42.403Z,70.23
2023-05-17T11:03:20.326Z,70.14
2023-05-17T11:06:23.666Z,65.28
2023-05-17T11:09:18.701Z,65.13
2023-05-17T11:12:07.727Z,67.95
2023-05-17T11:14:45.047Z,69.39
2023-05-17T11:17:20.757Z,70.65
2023-05-17T11:19:55.103Z,70.80
2023-05-17T11:22:27.680Z,65.99
2023-05-17T11:24:57.755Z,67.07
2023-05-17T11:27:28.961Z,64.61
2023-05-17T11:29:57.511Z,65.48
2023-05-17T11:32:29.576Z,66.68
2023-05-17T11:35:00.589Z,65.10
2023-05-17T11:37:29.956Z,63.95
2023-05-17T11:40:08.804Z,64.13
2023-05-17T11:42:38.222Z,63.36
2023-05-17T11:45:06.680Z,65.82
2023-05-17T11:47:38.789Z,62.83
2023-05-17T11:50:07.885Z,63.29
2023-05-17T11:52:35.558Z,63.24
2023-05-17T11:55:04.047Z,62.62
2023-05-17T11:57:32.668Z,59.46
2023-05-17T12:00:05.592Z,61.23
2023-05-17T12:02:39.920Z,58.96
2023-05-17T12:05:09.443Z,58.13
2023-05-17T12:07:37.659Z,57.22
2023-05-17T12:10:06.788Z,61.52
2023-05-17T12:12:35.128Z,57.26
2023-05-17T12:15:02.780Z,59.72
2023-05-17T12:17:38.242Z,61.55
2023-05-17T12:20:10.291Z,61.03
2023-05-17T12:22:57.302Z,62.25
2023-05-17T12:25:27.584Z,57.14
2023-05-17T12:28:22.786Z,59.11
2023-05-17T12:30:57.883Z,62.49
2023-05-17T12:33:26.470Z,61.78
2023-05-17T12:35:54.620Z,63.80
2023-05-17T12:38:22.614Z,58.86
2023-05-17T12:40:56.462Z,58.63
2023-05-17T12:43:24.848Z,58.12
2023-05-17T12:45:56.457Z,59.78
2023-05-17T12:48:26.337Z,60.77
2023-05-17T12:50:55.846Z,62.07
2023-05-17T12:53:23.744Z,62.61
2023-05-17T12:55:56.289Z,62.50
2023-05-17T12:58:24.295Z,68.40
2023-05-17T13:01:02.367Z,67.91
2023-05-17T13:03:31.074Z,69.63
2023-05-17T13:06:02.618Z,69.07
2023-05-17T13:08:30.741Z,68.89
2023-05-17T13:11:09.016Z,72.47
2023-05-17T13:13:36.922Z,68.30
2023-05-17T13:16:05.068Z,70.22
2023-05-17T13:18:50.809Z,71.87
2023-05-17T13:21:20.519Z,66.19
2023-05-17T13:23:49.301Z,71.20
2023-05-17T13:29:40.196Z,76.56
2023-05-17T13:32:10.609Z,77.60
2023-05-17T13:34:38.983Z,78.29
2023-05-17T13:37:10.344Z,75.55
2023-05-17T13:39:41.246Z,78.61
2023-05-17T13:42:10.953Z,81.15
2023-05-17T13:44:39.185Z,78.77
2023-05-17T13:47:07.286Z,80.25
2023-05-17T13:49:34.880Z,83.75
2023-05-17T13:52:03.699Z,84.53
2023-05-17T13:54:31.200Z,84.55
2023-05-17T13:56:58.789Z,84.80
2023-05-17T13:59:26.679Z,83.57
2023-05-17T14:01:54.318Z,82.53
2023-05-17T14:04:22.691Z,83.17
2023-05-17T14:06:54.111Z,81.80
2023-05-17T14:09:22.857Z,81.82
2023-05-17T14:11:50.452Z,82.15
2023-05-17T14:14:18.034Z,79.00
2023-05-17T14:16:46.043Z,77.17
2023-05-17T14:19:13.611Z,77.29
2023-05-17T14:21:41.304Z,80.99
2023-05-17T14:24:09.205Z,81.44
2023-05-17T14:26:37.285Z,83.40
2023-05-17T14:29:06.354Z,82.63
2023-05-17T14:31:34.167Z,83.10
2023-05-17T14:34:03.208Z,84.17
2023-05-17T14:36:31.988Z,85.33
2023-05-17T14:38:59.940Z,86.70
2023-05-17T14:41:27.780Z,86.47
2023-05-17T14:43:55.769Z,85.09
2023-05-17T14:46:24.172Z,84.32
2023-05-17T14:48:52.397Z,84.46
2023-05-17T14:51:20.021Z,84.91
2023-05-17T14:53:48.075Z,85.61
2023-05-17T14:56:15.562Z,83.51
2023-05-17T14:58:43.545Z,84.27
2023-05-17T15:01:11.371Z,84.31
2023-05-17T15:03:39.123Z,84.37
2023-05-17T15:06:09.519Z,85.95
2023-05-17T15:08:39.750Z,86.21
2023-05-17T15:11:07.359Z,88.48
2023-05-17T15:13:34.842Z,86.52
2023-05-17T15:16:06.240Z,88.11
2023-05-17T15:18:33.781Z,89.27
2023-05-17T15:21:02.780Z,89.96
2023-05-17T15:23:30.764Z,90.15
2023-05-17T15:25:58.331Z,88.65
2023-05-17T15:28:26.010Z,88.80
2023-05-17T15:31:06.170Z,86.46
2023-05-17T15:33:33.889Z,84.75
2023-05-17T15:36:01.759Z,83.72
2023-05-17T15:38:29.283Z,84.30
2023-05-17T15:41:05.745Z,84.95
2023-05-17T15:43:34.673Z,84.60
2023-05-17T15:46:02.559Z,86.68
2023-05-17T15:48:30.218Z,84.95
2023-05-17T15:50:58.759Z,86.21
2023-05-17T15:53:27.693Z,86.32
2023-05-17T15:55:55.949Z,86.83
2023-05-17T15:58:27.834Z,86.57
2023-05-17T16:00:55.553Z,87.07
2023-05-17T16:03:23.429Z,86.92
2023-05-17T16:05:51.678Z,87.21
2023-05-17T16:08:20.370Z,87.98
2023-05-17T16:10:48.095Z,88.73
2023-05-17T16:13:16.300Z,89.52
2023-05-17T16:15:44.009Z,89.97
2023-05-17T16:18:14.338Z,88.08
2023-05-17T16:20:42.486Z,87.64
2023-05-17T16:23:10.299Z,87.73
2023-05-17T16:25:38.219Z,88.61
2023-05-17T16:28:05.792Z,87.84
2023-05-17T16:30:33.216Z,87.76
2023-05-17T16:33:01.251Z,86.08
2023-05-17T16:35:29.245Z,86.22
2023-05-17T16:37:56.942Z,86.85
2023-05-17T16:40:24.801Z,88.53
2023-05-17T16:42:52.300Z,90.18
2023-05-17T16:45:19.900Z,90.06
2023-05-17T16:47:47.766Z,90.43
2023-05-17T16:50:15.417Z,90.32
2023-05-17T16:52:42.911Z,89.97
2023-05-17T16:55:10.875Z,91.92
2023-05-17T16:57:38.344Z,91.81
2023-05-17T17:00:06.609Z,92.98
2023-05-17T17:02:34.540Z,94.40
2023-05-17T17:05:04.385Z,94.85
2023-05-17T17:07:31.946Z,95.50
2023-05-17T17:09:59.697Z,97.67
2023-05-17T17:12:27.173Z,96.87
2023-05-17T17:14:54.670Z,97.48
2023-05-17T17:17:22.652Z,97.23
2023-05-17T17:19:50.163Z,97.37
2023-05-17T17:22:18.143Z,98.66
2023-05-17T17:24:46.004Z,99.96
2023-05-17T17:27:13.612Z,100.00
2023-05-17T17:29:41.201Z,100.00
2023-05-17T17:32:08.997Z,100.00
2023-05-17T17:34:36.546Z,100.00
2023-05-17T17:37:04.248Z,100.00
2023-05-17T17:39:32.032Z,100.00
2023-05-17T17:41:59.507Z,100.00
2023-05-17T17:44:27.024Z,100.00
2023-05-17T17:46:54.858Z,100.00
2023-05-17T17:49:22.399Z,100.00
2023-05-17T17:51:50.123Z,100.00
2023-05-17T17:54:17.992Z,100.00
2023-05-17T17:56:45.614Z,100.00
2023-05-17T17:59:13.349Z,100.00
2023-05-17T18:01:41.254Z,100.00
2023-05-17T18:04:09.668Z,100.00
2023-05-17T18:06:37.286Z,100.00
2023-05-17T18:09:04.858Z,100.00
2023-05-17T18:11:32.734Z,100.00
2023-05-17T18:14:02.425Z,100.00
2023-05-17T18:16:30.791Z,100.00
2023-05-17T18:18:58.650Z,100.00
2023-05-17T18:21:26.221Z,100.00
2023-05-17T18:23:53.798Z,100.00
2023-05-17T18:26:23.286Z,100.00
2023-05-17T18:28:51.237Z,100.00
2023-05-17T18:31:18.999Z,100.00
2023-05-17T18:33:47.082Z,100.00
2023-05-17T18:36:14.741Z,100.00
2023-05-17T18:38:42.193Z,100.00
2023-05-17T18:41:09.965Z,100.00
2023-05-17T18:43:37.777Z,100.00
2023-05-17T18:46:05.354Z,100.00
2023-05-17T18:48:36.491Z,100.00
2023-05-17T18:51:04.056Z,100.00
2023-05-17T18:53:31.566Z,100.00
2023-05-17T18:56:02.419Z,100.00
2023-05-17T18:58:30.114Z,100.00
2023-05-17T19:00:58.041Z,100.00
2023-05-17T19:03:26.137Z,100.00
2023-05-17T19:05:53.868Z,100.00
2023-05-17T19:08:21.366Z,100.00
2023-05-17T19:10:49.757Z,100.00
2023-05-17T19:13:17.592Z,100.00
2023-05-17T19:15:45.278Z,100.00
2023-05-17T19:18:13.348Z,100.00
2023-05-17T19:20:40.984Z,100.00
2023-05-17T19:23:08.710Z,100.00
2023-05-17T19:25:36.587Z,100.00
2023-05-17T19:28:04.379Z,100.00
2023-05-17T19:30:33.134Z,100.00
2023-05-17T19:33:01.643Z,100.00
2023-05-17T19:35:29.530Z,100.00
2023-05-17T19:37:57.242Z,100.00
2023-05-17T19:40:25.077Z,100.00
2023-05-17T19:42:52.581Z,100.00
2023-05-17T19:45:20.430Z,100.00
2023-05-17T19:47:48.422Z,100.00
2023-05-17T19:50:16.882Z,100.00
2023-05-17T19:52:44.507Z,100.00
2023-05-17T19:55:21.802Z,100.00
2023-05-17T19:57:49.553Z,100.00
2023-05-17T20:00:17.950Z,100.00
2023-05-17T20:02:49.063Z,100.00
2023-05-17T20:05:17.390Z,100.00
2023-05-17T20:07:45.061Z,100.00
2023-05-17T20:10:13.108Z,100.00
2023-05-17T20:12:40.912Z,100.00
2023-05-17T20:15:09.067Z,100.00
2023-05-17T20:17:37.224Z,100.00
2023-05-17T20:20:05.601Z,100.00
2023-05-17T20:22:34.002Z,100.00
2023-05-17T20:25:01.902Z,100.00
2023-05-17T20:27:29.372Z,100.00
2023-05-17T20:29:56.984Z,100.00
2023-05-17T20:32:25.069Z,100.00
2023-05-17T20:34:52.823Z,100.00
2023-05-17T20:37:20.420Z,100.00
2023-05-17T20:39:48.333Z,100.00
2023-05-17T20:42:18.127Z,100.00
2023-05-17T20:44:46.010Z,100.00
2023-05-17T20:47:13.892Z,100.00
2023-05-17T20:49:41.407Z,100.00
2023-05-17T20:52:08.986Z,100.00
2023-05-17T20:54:37.211Z,100.00
2023-05-17T20:57:06.572Z,100.00
2023-05-17T20:59:34.121Z,100.00
2023-05-17T21:02:03.940Z,100.00
2023-05-17T21:04:31.688Z,100.00
2023-05-17T21:06:59.138Z,100.00
2023-05-17T21:09:26.961Z,100.00
2023-05-17T21:11:54.591Z,100.00
2023-05-17T21:14:22.214Z,100.00
2023-05-17T21:16:50.057Z,100.00
2023-05-17T21:19:17.650Z,100.00
2023-05-17T21:21:45.486Z,100.00
2023-05-17T21:24:13.298Z,100.00
2023-05-17T21:26:41.310Z,100.00
2023-05-17T21:29:09.075Z,100.00
2023-05-17T21:31:37.245Z,100.00
2023-05-17T21:34:04.835Z,100.00
2023-05-17T21:36:32.311Z,100.00
2023-05-17T21:39:00.106Z,100.00
2023-05-17T21:41:27.544Z,100.00
2023-05-17T21:43:55.065Z,100.00
2023-05-17T21:46:22.833Z,100.00
2023-05-17T21:48:50.515Z,100.00
2023-05-17T21:51:18.083Z,100.00
2023-05-17T21:53:45.905Z,100.00
2023-05-17T21:56:13.474Z,100.00
2023-05-17T21:58:41.013Z,100.00
2023-05-17T22:01:08.822Z,100.00
2023-05-17T22:03:36.856Z,100.00
2023-05-17T22:06:04.744Z,100.00
2023-05-17T22:08:32.248Z,100.00
2023-05-17T22:11:00.040Z,100.00
2023-05-17T22:13:27.658Z,100.00
2023-05-17T22:15:57.372Z,100.00
2023-05-17T22:18:27.153Z,100.00
2023-05-17T22:20:55.172Z,100.00
2023-05-17T22:23:22.675Z,100.00
2023-05-17T22:25:50.744Z,100.00
2023-05-17T22:28:18.456Z,100.00
2023-05-17T22:30:46.568Z,100.00
2023-05-17T22:33:14.685Z,100.00
2023-05-17T22:35:42.203Z,100.00
2023-05-17T22:38:09.727Z,100.00
2023-05-17T22:40:37.593Z,100.00
2023-05-17T22:43:08.240Z,100.00
2023-05-17T22:45:35.878Z,100.00
2023-05-17T22:48:05.760Z,100.00
2023-05-17T22:50:33.360Z,100.00
2023-05-17T22:53:03.792Z,100.00
2023-05-17T22:55:32.270Z,100.00
2023-05-17T22:57:59.953Z,100.00
2023-05-17T23:00:27.460Z,100.00
2023-05-17T23:02:55.528Z,100.00
2023-05-17T23:05:23.154Z,100.00
2023-05-17T23:07:50.731Z,100.00
2023-05-17T23:10:18.519Z,100.00
2023-05-17T23:12:46.022Z,100.00
2023-05-17T23:15:13.661Z,100.00
2023-05-17T23:17:41.429Z,100.00
2023-05-17T23:20:12.220Z,100.00
2023-05-17T23:22:39.969Z,100.00
2023-05-17T23:25:08.205Z,100.00
2023-05-17T23:27:36.328Z,100.00
2023-05-17T23:30:04.619Z,100.00
2023-05-17T23:32:32.852Z,100.00
2023-05-17T23:35:03.856Z,100.00
2023-05-17T23:37:34.815Z,100.00
2023-05-17T23:40:05.584Z,100.00
2023-05-17T23:42:33.481Z,100.00
2023-05-17T23:45:02.289Z,100.00
2023-05-17T23:47:30.893Z,100.00
2023-05-17T23:49:58.886Z,100.00
2023-05-17T23:52:29.922Z,100.00
2023-05-17T23:54:59.003Z,100.00
2023-05-17T23:57:26.857Z,100.00
2023-05-17T23:59:54.295Z,100.00
